createdAt,value
2019-02-07T00:00:37.152Z,45.50
2019-02-07T00:03:06.066Z,44.53
2019-02-07T00:05:35.046Z,44.90
2019-02-07T00:08:04.005Z,47.43
2019-02-07T00:10:33.136Z,46.03
2019-02-07T00:13:02.019Z,46.40
2019-02-07T00:15:31.001Z,46.33
2019-02-07T00:17:59.890Z,50.70
2019-02-07T00:20:29.614Z,46.10
2019-02-07T00:22:58.289Z,44.03
2019-02-07T00:25:27.291Z,46.17
2019-02-07T00:27:56.672Z,47.10
2019-02-07T00:30:25.418Z,36.27
2019-02-07T00:32:54.079Z,40.70
2019-02-07T00:35:22.959Z,40.97
2019-02-07T00:37:52.132Z,46.63
2019-02-07T00:40:21.523Z,41.67
2019-02-07T00:42:50.334Z,43.37
2019-02-07T00:45:19.432Z,43.63
2019-02-07T00:47:48.459Z,42.33
2019-02-07T00:50:17.317Z,39.30
2019-02-07T00:52:46.066Z,43.90
2019-02-07T00:55:15.055Z,43.23
2019-02-07T00:57:44.113Z,44.27
2019-02-07T01:00:18.802Z,44.00
2019-02-07T01:02:47.860Z,43.03
2019-02-07T01:05:16.832Z,44.60
2019-02-07T01:07:45.930Z,45.03
2019-02-07T01:10:22.880Z,43.77
2019-02-07T01:12:51.619Z,45.10
2019-02-07T01:15:20.788Z,41.83
2019-02-07T01:17:49.926Z,42.63
2019-02-07T01:20:18.891Z,43.33
2019-02-07T01:22:47.617Z,41.33
2019-02-07T01:25:18.715Z,45.30
2019-02-07T01:27:47.634Z,46.07
2019-02-07T01:30:19.000Z,46.87
2019-02-07T01:32:47.974Z,50.57
2019-02-07T01:35:16.634Z,45.97
2019-02-07T01:37:45.440Z,47.80
2019-02-07T01:40:16.367Z,45.80
2019-02-07T01:42:45.105Z,43.23
2019-02-07T01:45:15.961Z,45.43
2019-02-07T01:47:44.754Z,46.07
2019-02-07T01:50:15.060Z,48.00
2019-02-07T01:52:44.035Z,47.13
2019-02-07T01:55:12.864Z,50.13
2019-02-07T01:57:41.697Z,49.90
2019-02-07T02:00:13.609Z,52.97
2019-02-07T02:02:43.973Z,51.93
2019-02-07T02:05:13.916Z,51.33
2019-02-07T02:07:43.052Z,55.13
2019-02-07T02:10:17.250Z,51.53
2019-02-07T02:12:46.465Z,57.30
2019-02-07T02:15:24.400Z,54.27
2019-02-07T02:17:48.227Z,52.83
2019-02-07T02:20:17.755Z,54.20
2019-02-07T02:22:46.447Z,53.57
2019-02-07T02:25:15.448Z,56.07
2019-02-07T02:27:44.411Z,53.97
2019-02-07T02:30:19.006Z,62.00
2019-02-07T02:32:47.983Z,53.50
2019-02-07T02:35:16.696Z,58.47
2019-02-07T02:37:45.449Z,55.93
2019-02-07T02:40:14.679Z,58.80
2019-02-07T02:42:43.647Z,55.73
2019-02-07T02:45:13.548Z,56.93
2019-02-07T02:47:42.610Z,57.20
2019-02-07T02:50:13.637Z,59.90
2019-02-07T02:52:42.650Z,56.33
2019-02-07T02:55:12.794Z,60.57
2019-02-07T02:57:41.745Z,57.30
2019-02-07T03:00:18.097Z,58.83
2019-02-07T03:03:05.816Z,57.03
2019-02-07T03:05:58.262Z,56.77
2019-02-07T03:08:44.661Z,56.50
2019-02-07T03:11:38.802Z,53.60
2019-02-07T03:14:26.806Z,53.73
2019-02-07T03:17:13.510Z,53.73
2019-02-07T03:20:04.193Z,54.00
2019-02-07T03:22:50.800Z,53.90
2019-02-07T03:25:36.844Z,56.63
2019-02-07T03:28:24.887Z,55.63
2019-02-07T03:31:25.221Z,58.47
2019-02-07T03:34:15.752Z,57.83
2019-02-07T03:37:03.471Z,58.37
2019-02-07T03:39:42.302Z,56.63
2019-02-07T03:42:26.441Z,57.77
2019-02-07T03:45:17.051Z,57.77
2019-02-07T03:47:59.828Z,52.20
2019-02-07T03:50:46.752Z,58.57
2019-02-07T03:53:37.578Z,56.20
2019-02-07T03:56:24.193Z,57.00
2019-02-07T03:59:08.742Z,57.10
2019-02-07T04:01:55.326Z,51.43
2019-02-07T04:04:37.430Z,49.07
2019-02-07T04:07:28.007Z,48.33
2019-02-07T04:10:21.780Z,49.20
2019-02-07T04:13:08.329Z,47.27
2019-02-07T04:16:15.209Z,45.47
2019-02-07T04:19:00.882Z,45.60
2019-02-07T04:21:42.392Z,45.60
2019-02-07T04:24:33.021Z,46.93
2019-02-07T04:27:13.190Z,44.83
2019-02-07T04:29:59.841Z,46.90
2019-02-07T04:32:46.772Z,46.97
2019-02-07T04:35:29.448Z,45.40
2019-02-07T04:38:16.170Z,46.70
2019-02-07T04:41:16.087Z,45.30
2019-02-07T04:44:02.479Z,43.50
2019-02-07T04:46:51.330Z,38.33
2019-02-07T04:49:45.950Z,42.67
2019-02-07T04:52:33.651Z,41.20
2019-02-07T04:55:19.439Z,41.10
2019-02-07T04:58:06.201Z,40.30
2019-02-07T05:01:01.031Z,40.10
2019-02-07T05:03:57.120Z,39.27
2019-02-07T05:06:47.864Z,40.80
2019-02-07T05:09:44.182Z,41.20
2019-02-07T05:12:19.586Z,40.40
2019-02-07T05:15:06.443Z,39.53
2019-02-07T05:18:02.996Z,41.03
2019-02-07T05:20:42.209Z,39.33
2019-02-07T05:23:39.007Z,38.83
2019-02-07T05:26:17.570Z,38.97
2019-02-07T05:29:05.332Z,38.53
2019-02-07T05:31:52.578Z,37.83
2019-02-07T05:34:39.067Z,36.63
2019-02-07T05:37:17.394Z,37.53
2019-02-07T05:40:03.962Z,36.87
2019-02-07T05:42:50.854Z,35.00
2019-02-07T05:45:42.096Z,34.67
2019-02-07T05:48:28.868Z,32.97
2019-02-07T05:51:16.699Z,32.90
2019-02-07T05:54:11.683Z,33.47
2019-02-07T05:56:54.773Z,30.90
2019-02-07T05:59:41.457Z,30.43
2019-02-07T06:02:29.584Z,28.83
2019-02-07T06:05:32.682Z,28.80
2019-02-07T06:08:23.925Z,25.80
2019-02-07T06:11:14.868Z,25.07
2019-02-07T06:13:56.639Z,25.47
2019-02-07T06:16:33.870Z,24.70
2019-02-07T06:19:17.712Z,24.03
2019-02-07T06:22:04.457Z,23.57
2019-02-07T06:24:55.002Z,22.27
2019-02-07T06:27:42.776Z,19.67
2019-02-07T06:30:32.184Z,19.97
2019-02-07T06:33:19.255Z,20.10
2019-02-07T06:36:10.187Z,20.53
2019-02-07T06:39:01.156Z,17.67
2019-02-07T06:41:46.390Z,18.00
2019-02-07T06:44:34.402Z,17.53
2019-02-07T06:47:18.818Z,19.17
2019-02-07T06:50:19.584Z,17.43
2019-02-07T06:53:06.619Z,18.10
2019-02-07T06:55:51.356Z,18.07
2019-02-07T06:58:42.617Z,20.53
2019-02-07T07:01:39.783Z,17.07
2019-02-07T07:04:27.653Z,18.57
2019-02-07T07:07:22.349Z,16.17
2019-02-07T07:10:08.982Z,18.20
2019-02-07T07:12:55.495Z,14.10
2019-02-07T07:15:55.803Z,16.03
2019-02-07T07:18:42.333Z,15.23
2019-02-07T07:21:29.546Z,14.37
2019-02-07T07:24:13.426Z,14.83
2019-02-07T07:26:54.711Z,15.83
2019-02-07T07:29:52.104Z,14.50
2019-02-07T07:32:38.542Z,12.57
2019-02-07T07:35:26.090Z,12.13
2019-02-07T07:38:32.221Z,14.20
2019-02-07T07:41:23.894Z,13.30
2019-02-07T07:44:01.995Z,13.37
2019-02-07T07:46:47.809Z,11.87
2019-02-07T07:49:28.549Z,11.90
2019-02-07T07:52:07.628Z,11.97
2019-02-07T07:54:49.817Z,12.83
2019-02-07T07:57:36.161Z,11.37
2019-02-07T08:00:37.630Z,12.50
2019-02-07T08:03:35.047Z,12.93
2019-02-07T08:06:28.608Z,11.87
2019-02-07T08:09:34.681Z,12.97
2019-02-07T08:12:11.543Z,11.93
2019-02-07T08:15:02.615Z,11.03
2019-02-07T08:17:47.465Z,11.53
2019-02-07T08:20:28.822Z,12.50
2019-02-07T08:23:28.680Z,12.00
2019-02-07T08:26:14.933Z,10.83
2019-02-07T08:29:05.750Z,10.07
2019-02-07T08:31:51.091Z,11.60
2019-02-07T08:34:34.766Z,10.77
2019-02-07T08:37:30.538Z,9.63
2019-02-07T08:40:19.742Z,10.60
2019-02-07T08:43:06.285Z,12.10
2019-02-07T08:45:51.776Z,10.37
2019-02-07T08:48:46.267Z,11.10
2019-02-07T08:51:32.799Z,9.40
2019-02-07T08:54:24.568Z,11.33
2019-02-07T08:57:08.951Z,10.37
2019-02-07T08:59:57.284Z,11.57
2019-02-07T09:02:51.645Z,9.57
2019-02-07T09:05:32.674Z,9.73
2019-02-07T09:08:15.795Z,10.03
2019-02-07T09:11:06.629Z,9.97
2019-02-07T09:14:02.856Z,10.77
2019-02-07T09:17:09.123Z,9.80
2019-02-07T09:19:57.091Z,10.67
2019-02-07T09:22:34.160Z,11.73
2019-02-07T09:25:21.329Z,9.53
2019-02-07T09:28:12.987Z,7.93
2019-02-07T09:31:00.918Z,10.77
2019-02-07T09:33:47.558Z,10.53
2019-02-07T09:36:34.088Z,10.27
2019-02-07T09:39:24.584Z,9.93
2019-02-07T09:42:11.543Z,12.53
2019-02-07T09:44:52.720Z,11.20
2019-02-07T09:47:39.082Z,11.20
2019-02-07T09:50:25.841Z,10.37
2019-02-07T09:53:06.969Z,10.60
2019-02-07T09:55:54.972Z,9.93
2019-02-07T09:58:41.510Z,10.63
2019-02-07T10:01:28.304Z,10.17
2019-02-07T10:04:12.983Z,11.37
2019-02-07T10:06:59.619Z,10.60
2019-02-07T10:09:46.265Z,10.00
2019-02-07T10:12:33.175Z,11.20
2019-02-07T10:15:15.090Z,10.00
2019-02-07T10:18:00.746Z,11.10
2019-02-07T10:20:57.799Z,10.23
2019-02-07T10:23:44.293Z,10.07
2019-02-07T10:26:32.237Z,8.70
2019-02-07T10:29:32.137Z,9.73
2019-02-07T10:32:11.242Z,10.87
2019-02-07T10:34:48.116Z,9.77
2019-02-07T10:37:34.844Z,10.30
2019-02-07T10:40:11.906Z,9.57
2019-02-07T10:43:05.879Z,9.40
2019-02-07T10:45:56.726Z,8.67
2019-02-07T10:48:44.703Z,9.37
2019-02-07T10:51:26.937Z,9.37
2019-02-07T10:54:10.501Z,9.43
2019-02-07T10:57:00.942Z,10.23
2019-02-07T10:59:39.624Z,9.07
2019-02-07T11:02:26.399Z,9.83
2019-02-07T11:05:21.642Z,9.23
2019-02-07T11:08:04.990Z,9.07
2019-02-07T11:11:07.765Z,8.77
2019-02-07T11:13:46.913Z,8.20
2019-02-07T11:16:30.933Z,8.73
2019-02-07T11:19:24.870Z,8.90
2019-02-07T11:22:24.119Z,8.53
2019-02-07T11:25:17.744Z,8.83
2019-02-07T11:27:53.848Z,8.87
2019-02-07T11:30:48.125Z,7.43
2019-02-07T11:33:39.074Z,8.37
2019-02-07T11:36:25.558Z,7.63
2019-02-07T11:39:17.579Z,7.53
2019-02-07T11:42:04.224Z,5.63
2019-02-07T11:44:51.915Z,6.33
2019-02-07T11:47:34.344Z,7.10
2019-02-07T11:50:31.533Z,5.93
2019-02-07T11:53:26.023Z,7.90
2019-02-07T11:56:11.502Z,7.93
2019-02-07T11:58:56.241Z,8.53
2019-02-07T12:01:36.324Z,8.27
2019-02-07T12:04:37.598Z,7.10
2019-02-07T12:07:22.491Z,7.70
2019-02-07T12:10:23.395Z,7.80
2019-02-07T12:13:11.352Z,8.53
2019-02-07T12:15:58.505Z,5.47
2019-02-07T12:18:48.837Z,5.77
2019-02-07T12:21:35.300Z,7.03
2019-02-07T12:24:22.574Z,8.10
2019-02-07T12:27:01.072Z,8.80
2019-02-07T12:29:52.119Z,8.67
2019-02-07T12:32:49.148Z,9.40
2019-02-07T12:35:46.906Z,8.70
2019-02-07T12:38:37.348Z,11.07
2019-02-07T12:41:15.818Z,8.20
2019-02-07T12:43:59.116Z,9.83
2019-02-07T12:46:56.858Z,8.30
2019-02-07T12:49:44.556Z,8.33
2019-02-07T12:52:30.875Z,9.67
2019-02-07T12:55:12.164Z,8.50
2019-02-07T12:57:56.158Z,8.00
2019-02-07T13:00:37.568Z,9.27
2019-02-07T13:03:40.983Z,10.00
2019-02-07T13:06:20.165Z,8.67
2019-02-07T13:09:06.865Z,6.73
2019-02-07T13:11:43.604Z,9.40
2019-02-07T13:14:27.173Z,9.57
2019-02-07T13:17:04.479Z,9.60
2019-02-07T13:19:44.874Z,11.10
2019-02-07T13:22:38.840Z,8.87
2019-02-07T13:25:29.735Z,9.00
2019-02-07T13:28:23.558Z,8.07
2019-02-07T13:31:10.281Z,9.47
2019-02-07T13:33:46.881Z,10.97
2019-02-07T13:36:27.147Z,10.03
2019-02-07T13:39:17.387Z,11.10
2019-02-07T13:42:07.191Z,10.30
2019-02-07T13:44:57.767Z,10.33
2019-02-07T13:47:48.743Z,10.97
2019-02-07T13:50:48.677Z,9.13
2019-02-07T13:53:30.001Z,11.10
2019-02-07T13:56:33.421Z,10.20
2019-02-07T13:59:15.429Z,9.77
2019-02-07T14:02:05.969Z,9.97
2019-02-07T14:04:48.243Z,9.37
2019-02-07T14:07:35.163Z,10.10
2019-02-07T14:10:18.387Z,11.47
2019-02-07T14:13:11.556Z,11.87
2019-02-07T14:16:03.172Z,11.27
2019-02-07T14:18:42.945Z,10.97
2019-02-07T14:21:30.892Z,11.13
2019-02-07T14:24:08.524Z,9.10
2019-02-07T14:26:59.580Z,11.20
2019-02-07T14:29:37.399Z,9.10
2019-02-07T14:32:24.185Z,11.80
2019-02-07T14:35:21.194Z,11.40
2019-02-07T14:38:10.241Z,12.10
2019-02-07T14:40:52.878Z,12.40
2019-02-07T14:43:39.772Z,10.70
2019-02-07T14:46:37.518Z,10.00
2019-02-07T14:49:06.237Z,10.80
2019-02-07T14:51:35.127Z,11.50
2019-02-07T14:54:04.745Z,10.83
2019-02-07T14:56:33.795Z,10.43
2019-02-07T14:59:02.588Z,10.90
2019-02-07T15:01:31.817Z,11.73
2019-02-07T15:04:00.777Z,10.63
2019-02-07T15:06:29.791Z,11.67
2019-02-07T15:08:58.989Z,10.80
2019-02-07T15:11:28.147Z,10.13
2019-02-07T15:13:57.235Z,10.47
2019-02-07T15:16:26.231Z,12.00
2019-02-07T15:18:55.167Z,10.67
2019-02-07T15:21:24.093Z,9.53
2019-02-07T15:23:52.992Z,10.70
2019-02-07T15:26:22.483Z,10.60
2019-02-07T15:28:51.114Z,12.57
2019-02-07T15:31:20.233Z,11.40
2019-02-07T15:33:48.998Z,10.50
2019-02-07T15:36:17.736Z,9.27
2019-02-07T15:38:46.764Z,10.90
2019-02-07T15:41:15.467Z,9.00
2019-02-07T15:43:44.750Z,12.00
2019-02-07T15:46:13.744Z,10.43
2019-02-07T15:48:42.671Z,12.70
2019-02-07T15:51:11.403Z,9.97
2019-02-07T15:53:40.371Z,10.33
2019-02-07T15:56:09.125Z,10.50
2019-02-07T15:58:52.492Z,11.50
2019-02-07T16:01:26.652Z,10.73
2019-02-07T16:04:00.456Z,11.03
2019-02-07T16:06:29.196Z,11.50
2019-02-07T16:08:58.419Z,10.57
2019-02-07T16:11:27.334Z,11.37
2019-02-07T16:13:56.000Z,11.10
2019-02-07T16:16:24.651Z,11.70
2019-02-07T16:18:54.172Z,11.40
2019-02-07T16:21:23.356Z,10.67
2019-02-07T16:23:52.636Z,11.17
2019-02-07T16:26:21.613Z,12.90
2019-02-07T16:28:50.528Z,13.50
2019-02-07T16:31:19.649Z,12.83
2019-02-07T16:33:48.503Z,14.60
2019-02-07T16:36:17.555Z,14.37
2019-02-07T16:38:46.769Z,13.00
2019-02-07T16:41:15.493Z,15.37
2019-02-07T16:43:44.215Z,12.90
2019-02-07T16:46:13.270Z,12.20
2019-02-07T16:48:41.940Z,12.27
2019-02-07T16:51:10.891Z,13.80
2019-02-07T16:53:40.023Z,14.77
2019-02-07T16:56:08.705Z,13.73
2019-02-07T16:58:37.526Z,12.77
2019-02-07T17:01:07.525Z,14.00
2019-02-07T17:03:36.433Z,13.83
2019-02-07T17:06:06.339Z,14.63
2019-02-07T17:08:35.155Z,13.80
2019-02-07T17:11:04.244Z,14.67
2019-02-07T17:13:33.443Z,14.37
2019-02-07T17:16:02.205Z,14.83
2019-02-07T17:18:31.121Z,14.97
2019-02-07T17:21:11.221Z,15.50
2019-02-07T17:23:30.781Z,15.37
2019-02-07T17:25:59.642Z,14.87
2019-02-07T17:28:28.550Z,15.80
2019-02-07T17:30:57.548Z,14.27
2019-02-07T17:33:26.639Z,15.77
2019-02-07T17:35:55.697Z,15.23
2019-02-07T17:38:25.399Z,15.23
2019-02-07T17:40:54.676Z,16.50
2019-02-07T17:43:23.625Z,15.27
2019-02-07T17:45:52.565Z,15.23
2019-02-07T17:48:21.547Z,14.63
2019-02-07T17:50:50.494Z,16.83
2019-02-07T17:53:19.205Z,14.90
2019-02-07T17:55:48.275Z,16.73
2019-02-07T17:58:16.972Z,16.83
2019-02-07T18:00:52.328Z,13.13
2019-02-07T18:03:21.368Z,14.87
2019-02-07T18:05:50.443Z,16.70
2019-02-07T18:08:20.206Z,17.23
2019-02-07T18:10:49.308Z,15.23
2019-02-07T18:13:18.539Z,16.73
2019-02-07T18:15:47.394Z,16.83
2019-02-07T18:18:16.129Z,17.07
2019-02-07T18:20:45.119Z,17.17
2019-02-07T18:23:14.522Z,17.70
2019-02-07T18:25:43.338Z,18.33
2019-02-07T18:28:12.022Z,17.63
2019-02-07T18:30:41.268Z,16.93
2019-02-07T18:33:10.176Z,18.60
2019-02-07T18:35:39.072Z,20.43
2019-02-07T18:38:08.063Z,18.40
2019-02-07T18:40:37.064Z,19.33
2019-02-07T18:43:06.559Z,19.57
2019-02-07T18:45:35.753Z,20.00
2019-02-07T18:48:04.896Z,20.37
2019-02-07T18:50:35.389Z,19.17
2019-02-07T18:53:05.017Z,23.57
2019-02-07T18:55:33.795Z,19.10
2019-02-07T18:58:05.747Z,20.80
2019-02-07T19:00:35.148Z,18.50
2019-02-07T19:03:04.967Z,21.30
2019-02-07T19:05:33.743Z,20.23
2019-02-07T19:08:02.761Z,19.63
2019-02-07T19:10:31.562Z,19.00
2019-02-07T19:13:01.503Z,20.50
2019-02-07T19:15:39.074Z,19.40
2019-02-07T19:18:07.931Z,18.00
2019-02-07T19:20:36.959Z,17.00
2019-02-07T19:23:06.355Z,19.17
2019-02-07T19:25:37.099Z,19.67
2019-02-07T19:28:08.617Z,18.30
2019-02-07T19:30:38.882Z,14.47
2019-02-07T19:33:08.241Z,17.17
2019-02-07T19:35:37.368Z,17.93
2019-02-07T19:38:06.144Z,17.73
2019-02-07T19:40:35.070Z,16.10
2019-02-07T19:43:04.164Z,18.00
2019-02-07T19:45:33.166Z,15.13
2019-02-07T19:48:01.815Z,18.13
2019-02-07T19:50:30.543Z,19.27
2019-02-07T19:52:59.464Z,18.50
2019-02-07T19:55:31.646Z,19.07
2019-02-07T19:58:00.414Z,18.63
2019-02-07T20:00:30.881Z,17.83
2019-02-07T20:02:59.873Z,17.63
2019-02-07T20:05:28.997Z,18.80
2019-02-07T20:07:58.988Z,16.83
2019-02-07T20:10:28.173Z,16.23
2019-02-07T20:12:57.484Z,16.90
2019-02-07T20:15:28.626Z,18.10
2019-02-07T20:17:59.737Z,16.47
2019-02-07T20:20:29.777Z,13.93
2019-02-07T20:22:58.648Z,13.47
2019-02-07T20:25:27.469Z,12.70
2019-02-07T20:27:56.860Z,13.30
2019-02-07T20:30:27.843Z,13.37
2019-02-07T20:32:57.107Z,16.60
2019-02-07T20:35:26.386Z,13.87
2019-02-07T20:37:55.255Z,13.23
2019-02-07T20:40:25.729Z,13.10
2019-02-07T20:42:54.624Z,13.13
2019-02-07T20:45:24.462Z,11.93
2019-02-07T20:47:53.279Z,12.30
2019-02-07T20:50:25.547Z,12.13
2019-02-07T20:52:56.692Z,13.30
2019-02-07T20:55:25.719Z,10.30
2019-02-07T20:57:54.880Z,13.60
2019-02-07T21:00:32.003Z,11.43
2019-02-07T21:03:03.645Z,14.57
2019-02-07T21:05:32.637Z,10.67
2019-02-07T21:08:01.532Z,13.23
2019-02-07T21:10:31.742Z,12.23
2019-02-07T21:13:00.515Z,13.17
2019-02-07T21:15:30.071Z,12.93
2019-02-07T21:17:58.753Z,14.00
2019-02-07T21:20:28.530Z,10.97
2019-02-07T21:22:58.619Z,12.97
2019-02-07T21:25:48.151Z,14.30
2019-02-07T21:28:17.025Z,9.50
2019-02-07T21:30:45.739Z,13.23
2019-02-07T21:33:14.472Z,12.93
2019-02-07T21:35:43.348Z,13.17
2019-02-07T21:38:12.315Z,12.90
2019-02-07T21:40:41.017Z,13.60
2019-02-07T21:43:10.569Z,13.73
2019-02-07T21:45:39.569Z,10.90
2019-02-07T21:48:10.600Z,12.80
2019-02-07T21:50:39.414Z,13.30
2019-02-07T21:53:08.073Z,13.27
2019-02-07T21:55:37.240Z,12.67
2019-02-07T21:58:06.947Z,10.40
2019-02-07T22:00:38.151Z,12.53
2019-02-07T22:03:09.072Z,13.37
2019-02-07T22:05:38.235Z,12.43
2019-02-07T22:08:07.944Z,9.67
2019-02-07T22:10:37.001Z,12.33
2019-02-07T22:13:06.279Z,12.70
2019-02-07T22:15:35.160Z,13.23
2019-02-07T22:18:04.353Z,11.53
2019-02-07T22:20:33.149Z,10.80
2019-02-07T22:23:02.266Z,12.00
2019-02-07T22:25:31.178Z,12.13
2019-02-07T22:27:59.906Z,11.63
2019-02-07T22:30:31.791Z,10.43
2019-02-07T22:33:00.799Z,10.53
2019-02-07T22:35:30.404Z,10.40
2019-02-07T22:37:59.588Z,9.23
2019-02-07T22:40:28.623Z,11.40
2019-02-07T22:42:57.419Z,8.30
2019-02-07T22:45:26.906Z,9.60
2019-02-07T22:47:55.890Z,10.03
2019-02-07T22:50:26.122Z,11.70
2019-02-07T22:52:57.130Z,8.97
2019-02-07T22:55:25.671Z,7.97
2019-02-07T22:57:54.492Z,11.93
2019-02-07T23:01:08.729Z,10.50
2019-02-07T23:03:39.133Z,8.57
2019-02-07T23:06:08.622Z,9.37
2019-02-07T23:08:37.614Z,9.77
2019-02-07T23:11:08.392Z,11.93
2019-02-07T23:13:37.193Z,8.67
2019-02-07T23:16:08.604Z,9.47
2019-02-07T23:18:38.302Z,8.70
2019-02-07T23:21:07.824Z,9.87
2019-02-07T23:23:36.737Z,10.23
2019-02-07T23:26:07.161Z,10.03
2019-02-07T23:28:36.239Z,10.77
2019-02-07T23:31:06.951Z,9.30
2019-02-07T23:33:36.117Z,8.53
2019-02-07T23:36:06.449Z,8.73
2019-02-07T23:38:35.562Z,12.07
2019-02-07T23:41:04.926Z,8.87
2019-02-07T23:43:33.981Z,9.50
2019-02-07T23:46:02.724Z,8.53
2019-02-07T23:48:31.628Z,9.40
2019-02-07T23:51:00.692Z,5.83
2019-02-07T23:53:29.341Z,9.17
2019-02-07T23:55:58.506Z,8.93
2019-02-07T23:58:27.147Z,8.57
